createdAt,value
2019-03-29T00:01:01.721Z,54.58
2019-03-29T00:03:40.615Z,51.68
2019-03-29T00:06:20.132Z,54.90
2019-03-29T00:08:58.981Z,54.40
2019-03-29T00:11:39.197Z,51.70
2019-03-29T00:14:18.035Z,55.00
2019-03-29T00:16:56.998Z,55.52
2019-03-29T00:19:42.915Z,52.25
2019-03-29T00:22:23.025Z,54.13
2019-03-29T00:25:01.583Z,55.45
2019-03-29T00:27:40.604Z,56.10
2019-03-29T00:30:19.450Z,52.70
2019-03-29T00:32:59.337Z,50.40
2019-03-29T00:35:38.102Z,53.08
2019-03-29T00:38:16.973Z,51.95
2019-03-29T00:40:56.457Z,51.88
2019-03-29T00:43:35.190Z,50.17
2019-03-29T00:46:14.219Z,49.85
2019-03-29T00:48:53.110Z,51.83
2019-03-29T00:51:32.457Z,49.38
2019-03-29T00:54:11.290Z,48.42
2019-03-29T00:56:49.561Z,48.63
2019-03-29T00:59:28.185Z,51.88
2019-03-29T01:02:07.660Z,48.33
2019-03-29T01:04:48.727Z,51.20
2019-03-29T01:07:31.825Z,50.43
2019-03-29T01:10:11.052Z,45.35
2019-03-29T01:12:49.959Z,45.28
2019-03-29T01:15:29.002Z,44.48
2019-03-29T01:18:08.178Z,45.08
2019-03-29T01:20:48.776Z,44.20
2019-03-29T01:23:28.043Z,42.55
2019-03-29T01:26:06.744Z,43.73
2019-03-29T01:28:46.001Z,42.62
2019-03-29T01:31:25.054Z,42.40
2019-03-29T01:34:04.116Z,45.67
2019-03-29T01:36:43.168Z,44.20
2019-03-29T01:39:21.818Z,43.95
2019-03-29T01:42:01.967Z,44.30
2019-03-29T01:44:41.178Z,44.23
2019-03-29T01:47:20.041Z,44.88
2019-03-29T01:49:58.781Z,42.62
2019-03-29T01:52:37.236Z,43.25
2019-03-29T01:55:16.577Z,41.80
2019-03-29T01:57:55.032Z,43.08
2019-03-29T02:00:38.494Z,42.75
2019-03-29T02:03:17.263Z,40.45
2019-03-29T02:05:55.480Z,38.88
2019-03-29T02:08:35.923Z,40.70
2019-03-29T02:11:14.915Z,37.53
2019-03-29T02:13:53.624Z,34.20
2019-03-29T02:16:32.536Z,35.10
2019-03-29T02:19:11.211Z,30.80
2019-03-29T02:21:50.090Z,27.62
2019-03-29T02:24:28.876Z,27.05
2019-03-29T02:27:07.705Z,26.45
2019-03-29T02:29:46.348Z,26.80
2019-03-29T02:32:25.160Z,26.00
2019-03-29T02:35:04.653Z,25.30
2019-03-29T02:37:43.471Z,24.05
2019-03-29T02:40:22.802Z,24.82
2019-03-29T02:43:02.095Z,24.10
2019-03-29T02:45:41.434Z,23.05
2019-03-29T02:48:20.269Z,23.98
2019-03-29T02:51:01.711Z,23.10
2019-03-29T02:53:40.341Z,22.87
2019-03-29T02:56:20.683Z,22.80
2019-03-29T02:58:59.511Z,24.00
2019-03-29T03:01:38.181Z,21.87
2019-03-29T03:04:16.711Z,22.25
2019-03-29T03:06:55.471Z,19.07
2019-03-29T03:09:35.255Z,18.73
2019-03-29T03:12:14.455Z,17.12
2019-03-29T03:14:53.462Z,17.40
2019-03-29T03:17:33.148Z,17.05
2019-03-29T03:20:15.440Z,16.52
2019-03-29T03:22:53.390Z,16.32
2019-03-29T03:25:32.632Z,15.55
2019-03-29T03:28:12.319Z,16.15
2019-03-29T03:30:51.741Z,14.98
2019-03-29T03:33:30.506Z,15.63
2019-03-29T03:36:09.554Z,14.58
2019-03-29T03:38:48.397Z,15.68
2019-03-29T03:41:27.057Z,15.80
2019-03-29T03:44:07.033Z,16.57
2019-03-29T03:46:45.647Z,16.85
2019-03-29T03:49:24.324Z,17.12
2019-03-29T03:52:03.328Z,16.73
2019-03-29T03:54:41.776Z,16.30
2019-03-29T03:57:20.786Z,16.85
2019-03-29T04:00:00.586Z,17.10
2019-03-29T04:02:39.744Z,17.12
2019-03-29T04:05:18.257Z,16.95
2019-03-29T04:07:57.094Z,16.80
2019-03-29T04:10:36.120Z,16.77
2019-03-29T04:13:14.755Z,47.50
2019-03-29T04:15:54.828Z,22.42
2019-03-29T04:18:34.356Z,17.92
2019-03-29T04:21:13.186Z,16.20
2019-03-29T04:23:52.145Z,16.73
2019-03-29T04:26:31.199Z,16.93
2019-03-29T04:29:10.407Z,17.10
2019-03-29T04:31:49.229Z,16.80
2019-03-29T04:34:27.940Z,16.85
2019-03-29T04:37:06.857Z,16.10
2019-03-29T04:39:45.834Z,15.93
2019-03-29T04:42:24.573Z,15.35
2019-03-29T04:45:03.483Z,15.35
2019-03-29T04:47:42.782Z,15.78
2019-03-29T04:50:21.750Z,15.32
2019-03-29T04:53:00.626Z,16.20
2019-03-29T04:55:39.810Z,15.72
2019-03-29T04:58:18.530Z,15.00
2019-03-29T05:00:57.243Z,15.53
2019-03-29T05:03:36.232Z,15.28
2019-03-29T05:06:15.180Z,16.07
2019-03-29T05:08:54.172Z,15.88
2019-03-29T05:11:32.996Z,15.32
2019-03-29T05:14:12.419Z,14.43
2019-03-29T05:16:51.453Z,14.55
2019-03-29T05:19:30.437Z,14.87
2019-03-29T05:22:09.139Z,15.18
2019-03-29T05:24:47.709Z,14.45
2019-03-29T05:27:26.750Z,14.83
2019-03-29T05:30:05.907Z,14.87
2019-03-29T05:32:45.011Z,14.25
2019-03-29T05:35:24.438Z,14.90
2019-03-29T05:38:03.353Z,14.25
2019-03-29T05:40:42.142Z,14.20
2019-03-29T05:43:21.047Z,14.10
2019-03-29T05:45:59.330Z,15.72
2019-03-29T05:48:37.851Z,15.23
2019-03-29T05:51:17.147Z,15.88
2019-03-29T05:53:56.083Z,15.50
2019-03-29T05:56:35.355Z,16.77
2019-03-29T05:59:14.502Z,16.12
2019-03-29T06:01:53.102Z,16.67
2019-03-29T06:04:32.218Z,17.57
2019-03-29T06:07:13.522Z,15.55
2019-03-29T06:09:53.114Z,15.08
2019-03-29T06:12:32.050Z,15.83
2019-03-29T06:15:12.105Z,15.08
2019-03-29T06:17:50.718Z,15.23
2019-03-29T06:20:30.007Z,16.23
2019-03-29T06:23:08.656Z,15.20
2019-03-29T06:25:47.816Z,15.03
2019-03-29T06:28:29.845Z,14.93
2019-03-29T06:31:08.316Z,14.40
2019-03-29T06:33:47.035Z,15.03
2019-03-29T06:36:27.712Z,15.70
2019-03-29T06:39:08.541Z,14.63
2019-03-29T06:41:48.384Z,15.40
2019-03-29T06:44:27.313Z,16.00
2019-03-29T06:47:06.147Z,17.32
2019-03-29T06:49:44.678Z,15.15
2019-03-29T06:52:26.177Z,16.07
2019-03-29T06:55:04.786Z,16.52
2019-03-29T06:57:43.654Z,16.95
2019-03-29T07:00:22.593Z,18.37
2019-03-29T07:03:01.813Z,18.65
2019-03-29T07:05:40.602Z,18.50
2019-03-29T07:08:19.706Z,17.05
2019-03-29T07:10:58.583Z,16.60
2019-03-29T07:13:37.540Z,16.70
2019-03-29T07:16:17.966Z,17.35
2019-03-29T07:18:57.595Z,17.45
2019-03-29T07:21:36.706Z,17.90
2019-03-29T07:24:15.734Z,17.95
2019-03-29T07:26:54.052Z,19.50
2019-03-29T07:29:32.723Z,18.85
2019-03-29T07:32:11.705Z,18.30
2019-03-29T07:34:57.324Z,20.15
2019-03-29T07:37:36.925Z,18.55
2019-03-29T07:40:15.802Z,18.50
2019-03-29T07:42:54.865Z,17.70
2019-03-29T07:45:34.001Z,16.90
2019-03-29T07:48:12.720Z,16.37
2019-03-29T07:50:51.969Z,16.07
2019-03-29T07:53:30.915Z,17.32
2019-03-29T07:56:10.680Z,16.40
2019-03-29T07:58:49.506Z,17.25
2019-03-29T08:01:28.472Z,16.73
2019-03-29T08:04:07.580Z,15.90
2019-03-29T08:06:46.727Z,15.90
2019-03-29T08:09:25.459Z,16.48
2019-03-29T08:12:05.023Z,16.93
2019-03-29T08:14:43.677Z,16.77
2019-03-29T08:17:22.464Z,16.55
2019-03-29T08:20:35.967Z,16.20
2019-03-29T08:22:41.507Z,15.43
2019-03-29T08:25:23.291Z,14.75
2019-03-29T08:28:02.289Z,15.55
2019-03-29T08:30:42.380Z,15.80
2019-03-29T08:33:21.235Z,14.35
2019-03-29T08:36:00.353Z,14.90
2019-03-29T08:38:39.579Z,14.85
2019-03-29T08:41:19.645Z,15.98
2019-03-29T08:43:58.723Z,15.90
2019-03-29T08:46:37.809Z,15.88
2019-03-29T08:49:17.558Z,16.20
2019-03-29T08:51:57.500Z,16.57
2019-03-29T08:54:37.612Z,15.68
2019-03-29T08:57:16.881Z,16.25
2019-03-29T08:59:55.936Z,15.15
2019-03-29T09:02:35.607Z,15.65
2019-03-29T09:05:15.114Z,15.30
2019-03-29T09:07:54.346Z,16.73
2019-03-29T09:10:33.707Z,16.62
2019-03-29T09:13:12.486Z,16.65
2019-03-29T09:15:54.200Z,15.45
2019-03-29T09:18:32.864Z,16.27
2019-03-29T09:21:11.584Z,15.90
2019-03-29T09:23:50.730Z,16.85
2019-03-29T09:26:29.599Z,17.10
2019-03-29T09:29:08.590Z,15.85
2019-03-29T09:31:47.701Z,15.15
2019-03-29T09:34:28.842Z,15.88
2019-03-29T09:37:06.895Z,16.07
2019-03-29T09:39:47.983Z,15.68
2019-03-29T09:42:29.476Z,16.07
2019-03-29T09:45:06.783Z,16.65
2019-03-29T09:47:45.506Z,16.90
2019-03-29T09:50:25.101Z,17.23
2019-03-29T09:53:05.564Z,17.27
2019-03-29T09:55:45.826Z,16.48
2019-03-29T09:58:24.886Z,16.93
2019-03-29T10:01:03.841Z,16.32
2019-03-29T10:03:42.609Z,16.30
2019-03-29T10:06:21.514Z,15.28
2019-03-29T10:09:00.506Z,17.55
2019-03-29T10:11:40.658Z,16.67
2019-03-29T10:14:19.513Z,16.42
2019-03-29T10:16:58.221Z,16.97
2019-03-29T10:19:37.077Z,17.48
2019-03-29T10:22:16.073Z,17.32
2019-03-29T10:24:55.872Z,16.70
2019-03-29T10:27:34.853Z,17.73
2019-03-29T10:30:14.998Z,17.45
2019-03-29T10:32:57.303Z,17.80
2019-03-29T10:35:50.242Z,18.73
2019-03-29T10:38:18.484Z,17.92
2019-03-29T10:40:58.177Z,19.12
2019-03-29T10:43:37.110Z,17.80
2019-03-29T10:46:16.510Z,18.75
2019-03-29T10:48:55.635Z,20.30
2019-03-29T10:51:35.636Z,18.82
2019-03-29T10:54:14.560Z,20.82
2019-03-29T10:56:53.621Z,20.12
2019-03-29T10:59:32.652Z,20.10
2019-03-29T11:02:11.622Z,19.02
2019-03-29T11:04:50.451Z,19.20
2019-03-29T11:07:29.547Z,19.05
2019-03-29T11:10:08.557Z,21.07
2019-03-29T11:12:48.068Z,19.80
2019-03-29T11:15:26.746Z,19.85
2019-03-29T11:18:06.330Z,20.62
2019-03-29T11:20:45.343Z,20.88
2019-03-29T11:23:18.545Z,21.42
2019-03-29T11:25:55.808Z,21.15
2019-03-29T11:28:34.187Z,22.25
2019-03-29T11:31:11.307Z,21.65
2019-03-29T11:33:48.664Z,22.37
2019-03-29T11:36:25.905Z,24.02
2019-03-29T11:39:03.129Z,22.57
2019-03-29T11:41:40.694Z,22.70
2019-03-29T11:44:17.912Z,22.93
2019-03-29T11:46:54.891Z,21.48
2019-03-29T11:49:32.142Z,21.23
2019-03-29T11:52:09.262Z,22.35
2019-03-29T11:54:46.292Z,22.25
2019-03-29T11:57:23.668Z,25.37
2019-03-29T12:00:00.810Z,25.02
2019-03-29T12:02:39.265Z,28.83
2019-03-29T12:05:16.770Z,27.17
2019-03-29T12:07:54.089Z,25.68
2019-03-29T12:10:31.162Z,27.02
2019-03-29T12:13:07.905Z,26.10
2019-03-29T12:15:45.007Z,26.30
2019-03-29T12:18:22.020Z,27.37
2019-03-29T12:20:58.421Z,26.17
2019-03-29T12:23:35.528Z,26.15
2019-03-29T12:26:12.232Z,27.42
2019-03-29T12:28:49.349Z,25.90
2019-03-29T12:31:26.358Z,26.52
2019-03-29T12:34:03.453Z,23.87
2019-03-29T12:36:40.520Z,25.70
2019-03-29T12:39:17.590Z,23.95
2019-03-29T12:41:54.419Z,24.82
2019-03-29T12:44:31.895Z,23.05
2019-03-29T12:47:09.226Z,23.07
2019-03-29T12:49:46.080Z,24.20
2019-03-29T12:52:23.023Z,23.80
2019-03-29T12:55:00.270Z,22.58
2019-03-29T12:57:38.926Z,23.55
2019-03-29T13:00:17.123Z,23.32
2019-03-29T13:02:54.971Z,23.30
2019-03-29T13:05:32.141Z,22.85
2019-03-29T13:08:09.362Z,21.57
2019-03-29T13:10:46.790Z,22.20
2019-03-29T13:13:24.190Z,22.82
2019-03-29T13:16:01.101Z,21.93
2019-03-29T13:18:37.948Z,21.85
2019-03-29T13:21:14.976Z,23.32
2019-03-29T13:23:52.363Z,25.00
2019-03-29T13:26:28.940Z,24.80
2019-03-29T13:29:06.367Z,22.95
2019-03-29T13:31:43.281Z,23.18
2019-03-29T13:34:20.807Z,22.40
2019-03-29T13:36:57.809Z,23.05
2019-03-29T13:39:36.026Z,24.47
2019-03-29T13:42:13.584Z,25.40
2019-03-29T13:44:50.763Z,23.00
2019-03-29T13:47:27.468Z,25.60
2019-03-29T13:50:04.220Z,25.43
2019-03-29T13:52:41.318Z,26.42
2019-03-29T13:55:18.495Z,27.20
2019-03-29T13:57:56.445Z,26.23
2019-03-29T14:00:33.202Z,26.07
2019-03-29T14:03:10.529Z,23.95
2019-03-29T14:05:46.822Z,24.77
2019-03-29T14:08:24.272Z,26.27
2019-03-29T14:11:01.228Z,25.10
2019-03-29T14:13:38.124Z,24.98
2019-03-29T14:16:15.128Z,24.47
2019-03-29T14:18:52.222Z,23.18
2019-03-29T14:21:28.978Z,24.05
2019-03-29T14:24:05.566Z,21.75
2019-03-29T14:26:42.778Z,23.92
2019-03-29T14:29:19.904Z,23.40
2019-03-29T14:31:56.832Z,23.52
2019-03-29T14:34:34.104Z,25.02
2019-03-29T14:37:10.686Z,22.30
2019-03-29T14:39:47.771Z,23.67
2019-03-29T14:42:25.162Z,24.90
2019-03-29T14:45:02.449Z,25.82
2019-03-29T14:47:43.335Z,24.67
2019-03-29T14:50:20.853Z,21.87
2019-03-29T14:52:57.768Z,25.80
2019-03-29T14:55:37.009Z,26.45
2019-03-29T14:58:14.327Z,28.15
2019-03-29T15:00:50.865Z,22.55
2019-03-29T15:03:28.107Z,22.00
2019-03-29T15:06:05.171Z,27.07
2019-03-29T15:08:43.071Z,22.95
2019-03-29T15:11:22.397Z,23.05
2019-03-29T15:13:58.402Z,25.20
2019-03-29T15:16:35.435Z,28.85
2019-03-29T15:19:12.460Z,30.85
2019-03-29T15:21:49.649Z,32.03
2019-03-29T15:24:26.417Z,30.12
2019-03-29T15:27:03.682Z,28.62
2019-03-29T15:29:40.737Z,32.00
2019-03-29T15:32:17.934Z,24.25
2019-03-29T15:34:54.768Z,28.20
2019-03-29T15:37:31.955Z,33.38
2019-03-29T15:40:09.401Z,35.28
2019-03-29T15:42:46.748Z,37.03
2019-03-29T15:45:23.959Z,35.48
2019-03-29T15:48:03.171Z,29.07
2019-03-29T15:50:40.650Z,36.30
2019-03-29T15:53:17.794Z,36.50
2019-03-29T15:55:54.837Z,39.08
2019-03-29T15:58:32.067Z,34.70
2019-03-29T16:01:09.511Z,38.78
2019-03-29T16:03:49.069Z,32.98
2019-03-29T16:06:26.802Z,40.08
2019-03-29T16:09:03.232Z,40.25
2019-03-29T16:11:41.941Z,37.38
2019-03-29T16:14:18.867Z,33.35
2019-03-29T16:16:56.047Z,33.60
2019-03-29T16:19:32.984Z,35.70
2019-03-29T16:22:10.206Z,35.60
2019-03-29T16:24:47.337Z,33.00
2019-03-29T16:27:25.262Z,35.73
2019-03-29T16:30:03.873Z,33.75
2019-03-29T16:32:41.295Z,36.68
2019-03-29T16:35:18.758Z,34.48
2019-03-29T16:37:57.542Z,33.80
2019-03-29T16:40:34.631Z,37.60
2019-03-29T16:43:12.151Z,29.55
2019-03-29T16:45:48.960Z,33.88
2019-03-29T16:48:26.191Z,33.05
2019-03-29T16:51:03.592Z,38.38
2019-03-29T16:53:40.656Z,40.73
2019-03-29T16:56:17.775Z,40.63
2019-03-29T16:58:56.102Z,40.43
2019-03-29T17:01:33.710Z,40.63
2019-03-29T17:04:10.698Z,37.53
2019-03-29T17:06:48.277Z,36.13
2019-03-29T17:09:25.294Z,32.38
2019-03-29T17:12:02.284Z,33.10
2019-03-29T17:14:39.808Z,35.73
2019-03-29T17:17:17.010Z,38.10
2019-03-29T17:19:53.793Z,41.73
2019-03-29T17:22:30.806Z,43.25
2019-03-29T17:25:08.162Z,40.55
2019-03-29T17:27:45.312Z,39.58
2019-03-29T17:30:26.092Z,35.35
2019-03-29T17:33:04.107Z,34.33
2019-03-29T17:35:41.118Z,35.45
2019-03-29T17:38:18.264Z,36.15
2019-03-29T17:40:55.620Z,37.78
2019-03-29T17:43:32.778Z,37.90
2019-03-29T17:46:16.160Z,39.38
2019-03-29T17:48:48.054Z,39.53
2019-03-29T17:51:26.330Z,41.58
2019-03-29T17:54:04.450Z,42.75
2019-03-29T17:56:42.323Z,42.73
2019-03-29T17:59:19.108Z,30.00
2019-03-29T18:02:08.884Z,38.02
2019-03-29T18:04:34.336Z,36.45
2019-03-29T18:07:11.544Z,30.97
2019-03-29T18:09:48.277Z,37.98
2019-03-29T18:12:25.739Z,34.45
2019-03-29T18:15:03.190Z,34.85
2019-03-29T18:17:40.109Z,36.88
2019-03-29T18:20:18.014Z,38.28
2019-03-29T18:22:55.464Z,37.70
2019-03-29T18:25:32.607Z,33.85
2019-03-29T18:28:09.604Z,34.48
2019-03-29T18:30:46.960Z,33.92
2019-03-29T18:33:25.606Z,34.05
2019-03-29T18:36:02.469Z,35.38
2019-03-29T18:38:42.773Z,41.80
2019-03-29T18:41:20.529Z,36.30
2019-03-29T18:43:58.305Z,39.53
2019-03-29T18:46:44.578Z,36.77
2019-03-29T18:49:13.943Z,37.45
2019-03-29T18:51:50.559Z,35.43
2019-03-29T18:54:27.535Z,36.63
2019-03-29T18:57:04.551Z,37.38
2019-03-29T18:59:41.493Z,39.05
2019-03-29T19:02:18.436Z,32.90
2019-03-29T19:04:55.675Z,33.88
2019-03-29T19:07:35.659Z,34.08
2019-03-29T19:10:13.409Z,40.92
2019-03-29T19:12:50.233Z,43.10
2019-03-29T19:15:28.356Z,43.35
2019-03-29T19:18:05.170Z,43.02
2019-03-29T19:20:42.250Z,44.27
2019-03-29T19:23:19.022Z,39.83
2019-03-29T19:25:55.794Z,40.25
2019-03-29T19:28:32.790Z,34.23
2019-03-29T19:31:10.181Z,32.95
2019-03-29T19:33:47.243Z,36.88
2019-03-29T19:36:24.317Z,36.55
2019-03-29T19:39:02.622Z,41.60
2019-03-29T19:41:40.279Z,40.70
2019-03-29T19:44:17.123Z,43.28
2019-03-29T19:46:54.438Z,38.00
2019-03-29T19:49:31.582Z,41.50
2019-03-29T19:52:08.858Z,39.80
2019-03-29T19:54:46.407Z,42.50
2019-03-29T19:57:23.094Z,39.53
2019-03-29T20:00:00.095Z,35.05
2019-03-29T20:02:37.445Z,41.18
2019-03-29T20:05:34.812Z,41.20
2019-03-29T20:08:11.910Z,39.53
2019-03-29T20:10:49.329Z,38.50
2019-03-29T20:13:27.594Z,37.88
2019-03-29T20:16:04.509Z,40.70
2019-03-29T20:18:49.613Z,45.17
2019-03-29T20:21:26.721Z,50.90
2019-03-29T20:24:03.717Z,47.33
2019-03-29T20:26:40.514Z,43.45
2019-03-29T20:29:17.639Z,40.65
2019-03-29T20:31:54.554Z,39.15
2019-03-29T20:34:32.296Z,40.15
2019-03-29T20:37:09.450Z,40.83
2019-03-29T20:39:46.556Z,41.92
2019-03-29T20:42:24.984Z,37.75
2019-03-29T20:45:02.204Z,37.78
2019-03-29T20:47:42.485Z,40.08
2019-03-29T20:50:18.133Z,39.25
2019-03-29T20:52:54.855Z,42.85
2019-03-29T20:55:32.336Z,47.27
2019-03-29T20:58:09.353Z,46.63
2019-03-29T21:00:46.526Z,42.43
2019-03-29T21:03:23.620Z,39.75
2019-03-29T21:06:01.122Z,40.23
2019-03-29T21:08:38.103Z,41.95
2019-03-29T21:11:16.119Z,42.25
2019-03-29T21:13:52.779Z,46.23
2019-03-29T21:16:29.685Z,43.65
2019-03-29T21:19:08.640Z,41.85
2019-03-29T21:21:45.859Z,41.05
2019-03-29T21:24:23.924Z,41.08
2019-03-29T21:27:01.402Z,37.58
2019-03-29T21:29:38.621Z,41.40
2019-03-29T21:32:16.099Z,35.58
2019-03-29T21:34:53.076Z,45.03
2019-03-29T21:37:30.144Z,49.42
2019-03-29T21:40:07.907Z,48.38
2019-03-29T21:42:45.460Z,51.70
2019-03-29T21:45:28.542Z,46.68
2019-03-29T21:48:08.849Z,38.50
2019-03-29T21:50:38.791Z,47.03
2019-03-29T21:53:15.967Z,42.85
2019-03-29T21:55:53.290Z,45.63
2019-03-29T21:58:30.317Z,40.80
2019-03-29T22:01:07.482Z,45.70
2019-03-29T22:03:44.638Z,38.92
2019-03-29T22:06:21.882Z,39.85
2019-03-29T22:08:59.284Z,42.05
2019-03-29T22:11:36.487Z,42.38
2019-03-29T22:14:13.971Z,50.05
2019-03-29T22:16:51.181Z,53.30
2019-03-29T22:19:27.762Z,52.05
2019-03-29T22:22:05.076Z,47.70
2019-03-29T22:24:42.011Z,44.98
2019-03-29T22:27:21.915Z,45.80
2019-03-29T22:29:59.185Z,47.58
2019-03-29T22:32:36.815Z,42.30
2019-03-29T22:35:15.141Z,44.65
2019-03-29T22:37:52.299Z,45.85
2019-03-29T22:40:28.839Z,51.88
2019-03-29T22:43:07.439Z,56.48
2019-03-29T22:45:44.543Z,57.60
2019-03-29T22:48:21.497Z,50.67
2019-03-29T22:50:58.777Z,55.03
2019-03-29T22:53:35.583Z,48.42
2019-03-29T22:56:12.925Z,39.23
2019-03-29T22:58:49.694Z,40.48
2019-03-29T23:01:27.566Z,51.63
2019-03-29T23:04:04.359Z,49.25
2019-03-29T23:06:42.083Z,53.75
2019-03-29T23:09:18.661Z,55.43
2019-03-29T23:11:56.019Z,49.50
2019-03-29T23:14:33.063Z,54.38
2019-03-29T23:17:10.380Z,55.17
2019-03-29T23:19:47.580Z,58.65
2019-03-29T23:22:25.156Z,56.68
2019-03-29T23:25:02.110Z,52.50
2019-03-29T23:27:39.637Z,49.35
2019-03-29T23:30:16.682Z,47.60
2019-03-29T23:32:53.371Z,51.73
2019-03-29T23:35:30.344Z,50.83
2019-03-29T23:38:07.228Z,48.13
2019-03-29T23:40:45.123Z,48.08
2019-03-29T23:43:22.579Z,48.17
2019-03-29T23:45:59.822Z,50.90
2019-03-29T23:48:36.623Z,51.42
2019-03-29T23:51:15.219Z,49.45
2019-03-29T23:53:52.317Z,58.70
2019-03-29T23:56:29.496Z,59.60
2019-03-29T23:59:07.503Z,61.10
